LiveATC.Net - Listen to live air traffic control over the Internet! Contact for advertising information

ICAO: KSGJ  IATA: SGJ   Airport: St Augustine Airport
City: St Augustine   State/Province: Florida
Country: United States   Continent: North America
KSGJ METAR Weather: KSGJ 081658Z 09008KT 10SM CLR 29/23 A3008 RMK AO2 SLP186 T02890228
KSGJ Flight Activity (FlightAware)
KSGJ Airport Info   (AirNav) (iFlightPlanner)
KSGJ VFR Sectional Chart   (iFlightPlanner) 
KSGJ IFR Low Chart   (iFlightPlanner) 
KSGJ Ground/Tower
Feed Status: UP   Listeners: 7
Listen right in your browser - requires Flash (in browser, requires Flash)
Click here to listen with your own player (launches your MP3 player)
KSGJ Ground/Tower Audio Archives
St Augustine Ground121.175
St Augustine Tower127.625

Feed sponsored by:


Unauthorized use prohibited. See Terms of Service

Find LiveATC Audio Streams

Airport/ARTCC Code

(e.g., 124.400, 128.75)
Site-wide search

Browse LiveATC Feeds
LiveATC Coverage Map
Top 50 LiveATC Feeds
Bad Weather Areas

Offer a LiveATC Feed
Press Inquiries

LiveATC on iPhone
LiveATC on Android

Windows Phone
Windows 8/10

LiveATC Mobile
(Mobile browser)

ATC Audio Archives
Interesting Recordings

LiveATC Forums

Home Page
Make a Donation
LiveATC Bookstore

Terms of Use
Privacy Policy

ATC/Radar Sites
U.S. ARTCC Freqs
Canadian Air Freqs


FAA Airport Status
Nat'l Airspace Status
Arrival Demand Charts

Server Software By:

Please make a donation to help us keep growing!